Albion, Rhode Island
Current Conditions -  °F | °C
As of 10:15 AM on Monday 24 Nov 2014 (Local Time) from KSFZ Reporting Station
Overcast Overcast  
Wind Chill: 61°   Ceiling: 600
Heat Index: 61°   Visibility: 4mi
Dew Point: 55°   Wind: 10mph
Humidity: 82%   Direction: 200°SSW
Pressure: 29.72"   Gusts: 17mph
Location:  41.95°N, 71.45°W
Report Text: KSFZ 241515Z 20009G15KT 170V230 4SM BKN006 OVC014 16/13 A2972 RMK AO1 P0005
Loading
Personal Weather Stations






























Interactive Weather Map New forecast layout! Learn more

10-Day Weather Forecast

Advertisements
Track Severe Weather on mobile